Weather at Sotillo de la Andrada

Public forecast

Using degrees Celsius for public forecast. Weather courtesy of forecast.io.

Closest aviation weather report (METAR) to Sotillo de la Andrada

Closest report is Madrid–Torrejón Airport / Torrejón Air Base, 47.7 nm (88.3 km) S. Retrieved 2021/04/11 12:00 UTC (31 minutes ago):

LETO 111200Z VRB03KT 9999 SCT030TCU BKN045 15/08 Q1013 TEMPO SHRA

Closest aviation forecast (TAF) to Sotillo de la Andrada

Closest forecast is Base Aérea de Colmenar Viejo, 35.0 nm (64.8 km) S. Retrieved 2021/04/11 12:00 UTC (31 minutes ago):

TAF LECV 111100Z 1112/1212 VRB04KT 9999 SCT020 TX15/1116Z TN01/1206Z TEMPO 1112/1119 3000 RA SHRA BKN008 SCT015TCU PROB40 TEMPO 1112/1118 VRB15G25KT 2000 TSRA SCT030CB BECMG 1116/1118 03010KT